createdAt,value
2022-09-30T00:01:14.860Z,100.00
2022-09-30T00:05:02.686Z,100.00
2022-09-30T00:08:40.080Z,100.00
2022-09-30T00:12:27.347Z,100.00
2022-09-30T00:15:52.003Z,100.00
2022-09-30T00:19:39.824Z,100.00
2022-09-30T00:23:20.569Z,100.00
2022-09-30T00:27:11.364Z,100.00
2022-09-30T00:30:24.095Z,100.00
2022-09-30T00:33:55.700Z,100.00
2022-09-30T00:41:47.048Z,100.00
2022-09-30T00:45:39.968Z,100.00
2022-09-30T00:49:27.660Z,100.00
2022-09-30T00:53:06.572Z,100.00
2022-09-30T00:56:40.658Z,100.00
2022-09-30T01:00:30.518Z,100.00
2022-09-30T01:04:13.914Z,100.00
2022-09-30T01:08:00.150Z,100.00
2022-09-30T01:11:44.715Z,100.00
2022-09-30T01:15:32.554Z,100.00
2022-09-30T01:19:20.307Z,100.00
2022-09-30T01:23:19.570Z,100.00
2022-09-30T01:27:15.936Z,100.00
2022-09-30T01:31:04.959Z,100.00
2022-09-30T01:35:01.401Z,100.00
2022-09-30T01:39:06.970Z,100.00
2022-09-30T01:42:52.814Z,100.00
2022-09-30T01:46:43.609Z,100.00
2022-09-30T01:50:34.257Z,100.00
2022-09-30T01:54:29.376Z,100.00
2022-09-30T01:58:22.556Z,100.00
2022-09-30T02:02:05.910Z,100.00
2022-09-30T02:05:59.418Z,100.00
2022-09-30T02:09:54.410Z,100.00
2022-09-30T02:13:37.886Z,100.00
2022-09-30T02:17:30.985Z,100.00
2022-09-30T02:21:27.853Z,100.00
2022-09-30T02:25:03.448Z,100.00
2022-09-30T02:28:49.833Z,100.00
2022-09-30T02:32:37.964Z,100.00
2022-09-30T02:36:25.752Z,100.00
2022-09-30T02:40:28.077Z,100.00
2022-09-30T02:44:15.011Z,100.00
2022-09-30T02:48:11.556Z,100.00
2022-09-30T02:52:05.335Z,100.00
2022-09-30T02:56:11.099Z,100.00
2022-09-30T02:59:44.946Z,100.00
2022-09-30T03:03:36.188Z,100.00
2022-09-30T03:07:23.010Z,100.00
2022-09-30T03:11:15.148Z,100.00
2022-09-30T03:15:01.185Z,100.00
2022-09-30T03:18:48.947Z,100.00
2022-09-30T03:22:35.070Z,100.00
2022-09-30T03:26:24.197Z,100.00
2022-09-30T03:30:14.949Z,100.00
2022-09-30T03:34:08.163Z,100.00
2022-09-30T03:37:49.904Z,100.00
2022-09-30T03:41:43.654Z,100.00
2022-09-30T03:45:39.290Z,100.00
2022-09-30T03:49:28.331Z,100.00
2022-09-30T03:53:15.832Z,100.00
2022-09-30T03:57:06.172Z,100.00
2022-09-30T04:00:39.301Z,100.00
2022-09-30T04:04:17.086Z,100.00
2022-09-30T04:07:56.585Z,100.00
2022-09-30T04:11:37.769Z,100.00
2022-09-30T04:15:17.923Z,100.00
2022-09-30T04:18:59.677Z,100.00
2022-09-30T04:22:47.593Z,100.00
2022-09-30T04:26:29.275Z,100.00
2022-09-30T04:30:20.263Z,100.00
2022-09-30T04:34:14.251Z,100.00
2022-09-30T04:38:02.104Z,100.00
2022-09-30T04:41:30.631Z,100.00
2022-09-30T04:45:19.003Z,100.00
2022-09-30T04:49:09.066Z,100.00
2022-09-30T04:52:42.403Z,100.00
2022-09-30T04:56:30.168Z,100.00
2022-09-30T05:00:17.874Z,100.00
2022-09-30T05:04:07.741Z,100.00
2022-09-30T05:07:47.188Z,100.00
2022-09-30T05:11:06.625Z,100.00
2022-09-30T05:14:47.038Z,100.00
2022-09-30T05:18:18.857Z,100.00
2022-09-30T05:22:05.378Z,100.00
2022-09-30T05:25:53.335Z,100.00
2022-09-30T05:29:32.321Z,100.00
2022-09-30T05:33:14.745Z,100.00
2022-09-30T05:36:55.228Z,100.00
2022-09-30T05:40:43.660Z,100.00
2022-09-30T05:44:23.812Z,100.00
2022-09-30T05:48:10.026Z,100.00
2022-09-30T05:51:58.083Z,100.00
2022-09-30T05:55:45.259Z,100.00
2022-09-30T05:59:24.318Z,100.00
2022-09-30T06:02:43.618Z,100.00
2022-09-30T06:06:40.828Z,100.00
2022-09-30T06:10:18.643Z,100.00
2022-09-30T06:14:05.613Z,100.00
2022-09-30T06:17:47.649Z,100.00
2022-09-30T06:21:26.353Z,100.00
2022-09-30T06:25:14.479Z,100.00
2022-09-30T06:28:59.752Z,100.00
2022-09-30T06:32:39.548Z,100.00
2022-09-30T06:36:27.066Z,100.00
2022-09-30T06:40:14.675Z,100.00
2022-09-30T06:44:03.386Z,100.00
2022-09-30T06:47:52.484Z,100.00
2022-09-30T06:51:26.564Z,100.00
2022-09-30T06:55:13.449Z,100.00
2022-09-30T06:58:54.459Z,100.00
2022-09-30T07:02:42.360Z,100.00
2022-09-30T07:06:28.793Z,100.00
2022-09-30T07:10:09.035Z,100.00
2022-09-30T07:13:57.098Z,100.00
2022-09-30T07:17:44.962Z,100.00
2022-09-30T07:21:32.637Z,100.00
2022-09-30T07:25:20.524Z,100.00
2022-09-30T07:29:00.445Z,100.00
2022-09-30T07:32:33.945Z,100.00
2022-09-30T07:36:21.983Z,100.00
2022-09-30T07:39:54.744Z,100.00
2022-09-30T07:43:35.762Z,100.00
2022-09-30T07:47:24.879Z,100.00
2022-09-30T07:51:12.602Z,100.00
2022-09-30T07:55:00.450Z,100.00
2022-09-30T07:58:38.485Z,100.00
2022-09-30T08:02:17.611Z,100.00
2022-09-30T08:06:05.532Z,100.00
2022-09-30T08:09:53.636Z,100.00
2022-09-30T08:13:41.507Z,100.00
2022-09-30T08:17:29.386Z,100.00
2022-09-30T08:21:17.027Z,100.00
2022-09-30T08:25:04.625Z,100.00
2022-09-30T08:28:50.774Z,100.00
2022-09-30T08:32:38.677Z,100.00
2022-09-30T08:36:27.521Z,100.00
2022-09-30T08:40:16.277Z,100.00
2022-09-30T08:44:25.246Z,100.00
2022-09-30T08:48:11.627Z,100.00
2022-09-30T08:52:02.534Z,100.00
2022-09-30T08:55:53.666Z,100.00
2022-09-30T08:59:42.042Z,100.00
2022-09-30T09:03:38.809Z,100.00
2022-09-30T09:07:31.074Z,100.00
2022-09-30T09:11:22.910Z,100.00
2022-09-30T09:15:16.788Z,100.00
2022-09-30T09:19:15.611Z,100.00
2022-09-30T09:23:03.173Z,100.00
2022-09-30T09:26:45.041Z,100.00
2022-09-30T09:30:41.641Z,100.00
2022-09-30T09:34:40.635Z,100.00
2022-09-30T09:38:46.904Z,100.00
2022-09-30T09:42:36.304Z,100.00
2022-09-30T09:46:24.272Z,100.00
2022-09-30T09:50:15.257Z,100.00
2022-09-30T09:54:18.194Z,100.00
2022-09-30T09:58:09.323Z,100.00
2022-09-30T10:01:57.505Z,100.00
2022-09-30T10:05:45.861Z,100.00
2022-09-30T10:09:35.293Z,100.00
2022-09-30T10:13:26.266Z,99.54
2022-09-30T10:17:24.242Z,100.00
2022-09-30T10:21:15.248Z,100.00
2022-09-30T10:25:06.139Z,100.00
2022-09-30T10:29:03.154Z,99.49
2022-09-30T10:32:44.067Z,100.00
2022-09-30T10:36:37.781Z,100.00
2022-09-30T10:40:28.794Z,100.00
2022-09-30T10:44:22.343Z,99.32
2022-09-30T10:48:10.879Z,93.01
2022-09-30T10:51:40.222Z,91.21
2022-09-30T10:55:40.746Z,93.14
2022-09-30T10:59:21.704Z,93.94
2022-09-30T11:03:15.338Z,97.73
2022-09-30T11:07:03.952Z,95.70
2022-09-30T11:10:54.392Z,94.88
2022-09-30T11:15:15.674Z,92.82
2022-09-30T11:19:04.150Z,89.92
2022-09-30T11:22:57.833Z,88.83
2022-09-30T11:26:46.112Z,87.05
2022-09-30T11:30:36.857Z,87.65
2022-09-30T11:34:31.369Z,83.21
2022-09-30T11:38:08.202Z,86.66
2022-09-30T11:41:59.341Z,88.16
2022-09-30T11:45:59.327Z,93.15
2022-09-30T11:49:59.355Z,85.53
2022-09-30T11:53:53.121Z,80.89
2022-09-30T11:57:49.815Z,77.46
2022-09-30T12:01:38.211Z,77.90
2022-09-30T12:05:26.036Z,74.19
2022-09-30T12:09:29.272Z,72.08
2022-09-30T12:13:17.900Z,71.56
2022-09-30T12:17:05.135Z,71.95
2022-09-30T12:21:10.877Z,69.45
2022-09-30T12:25:20.283Z,71.28
2022-09-30T12:29:06.319Z,70.95
2022-09-30T12:32:55.051Z,68.66
2022-09-30T12:36:54.610Z,71.07
2022-09-30T12:40:42.076Z,72.90
2022-09-30T12:44:48.526Z,72.08
2022-09-30T12:48:37.292Z,70.39
2022-09-30T12:52:26.681Z,71.08
2022-09-30T12:56:17.589Z,71.34
2022-09-30T13:00:06.471Z,73.94
2022-09-30T13:03:58.012Z,74.78
2022-09-30T13:07:46.883Z,74.48
2022-09-30T13:11:38.864Z,80.02
2022-09-30T13:15:42.951Z,78.71
2022-09-30T13:19:31.648Z,83.15
2022-09-30T13:23:20.690Z,87.15
2022-09-30T13:27:26.962Z,88.65
2022-09-30T13:31:15.708Z,87.41
2022-09-30T13:34:53.999Z,90.70
2022-09-30T13:38:52.513Z,88.67
2022-09-30T13:42:40.480Z,87.73
2022-09-30T13:46:31.204Z,80.96
2022-09-30T13:50:40.579Z,75.65
2022-09-30T13:54:31.323Z,77.14
2022-09-30T13:58:20.523Z,79.46
2022-09-30T14:02:21.415Z,79.58
2022-09-30T14:06:12.089Z,84.54
2022-09-30T14:10:17.122Z,87.46
2022-09-30T14:14:28.951Z,87.87
2022-09-30T14:18:22.321Z,86.56
2022-09-30T14:22:14.381Z,92.24
2022-09-30T14:26:03.204Z,94.84
2022-09-30T14:30:03.219Z,88.68
2022-09-30T14:34:02.884Z,83.86
2022-09-30T14:37:56.192Z,81.73
2022-09-30T14:41:41.312Z,83.75
2022-09-30T14:45:08.926Z,74.24
2022-09-30T14:48:48.950Z,72.77
2022-09-30T14:52:29.381Z,74.70
2022-09-30T14:56:23.842Z,75.76
2022-09-30T15:00:18.138Z,78.52
2022-09-30T15:04:06.904Z,77.87
2022-09-30T15:07:54.858Z,82.91
2022-09-30T15:11:49.797Z,88.37
2022-09-30T15:16:02.136Z,94.61
2022-09-30T15:19:54.360Z,95.80
2022-09-30T15:23:42.495Z,95.96
2022-09-30T15:27:30.608Z,99.70
2022-09-30T15:31:17.492Z,100.00
2022-09-30T15:35:05.431Z,100.00
2022-09-30T15:38:56.096Z,100.00
2022-09-30T15:42:44.908Z,100.00
2022-09-30T15:46:33.551Z,100.00
2022-09-30T15:50:19.349Z,100.00
2022-09-30T15:54:09.944Z,100.00
2022-09-30T15:58:17.739Z,100.00
2022-09-30T16:02:02.994Z,100.00
2022-09-30T16:05:54.017Z,100.00
2022-09-30T16:09:45.532Z,100.00
2022-09-30T16:13:33.967Z,100.00
2022-09-30T16:17:18.589Z,100.00
2022-09-30T16:21:06.660Z,100.00
2022-09-30T16:25:04.546Z,100.00
2022-09-30T16:29:14.652Z,100.00
2022-09-30T16:32:52.146Z,100.00
2022-09-30T16:36:40.323Z,100.00
2022-09-30T16:40:10.110Z,100.00
2022-09-30T16:43:52.360Z,100.00
2022-09-30T16:47:40.264Z,100.00
2022-09-30T16:51:07.277Z,100.00
2022-09-30T16:54:43.742Z,100.00
2022-09-30T16:58:32.511Z,100.00
2022-09-30T17:02:20.387Z,100.00
2022-09-30T17:06:07.705Z,100.00
2022-09-30T17:09:56.178Z,100.00
2022-09-30T17:13:45.603Z,100.00
2022-09-30T17:17:34.125Z,100.00
2022-09-30T17:21:22.954Z,100.00
2022-09-30T17:25:03.573Z,100.00
2022-09-30T17:28:55.385Z,100.00
2022-09-30T17:32:46.295Z,100.00
2022-09-30T17:36:30.147Z,100.00
2022-09-30T17:40:18.937Z,100.00
2022-09-30T17:43:56.946Z,100.00
2022-09-30T17:47:30.898Z,100.00
2022-09-30T17:51:27.084Z,100.00
2022-09-30T17:55:15.123Z,100.00
2022-09-30T17:59:02.431Z,100.00
2022-09-30T18:02:55.228Z,100.00
2022-09-30T18:06:42.419Z,100.00
2022-09-30T18:10:13.233Z,100.00
2022-09-30T18:14:02.526Z,100.00
2022-09-30T18:17:54.743Z,100.00
2022-09-30T18:25:36.709Z,100.00
2022-09-30T18:29:36.019Z,100.00
2022-09-30T18:33:42.302Z,100.00
2022-09-30T18:37:12.577Z,100.00
2022-09-30T18:40:55.598Z,100.00
2022-09-30T18:44:37.252Z,100.00
2022-09-30T18:48:25.853Z,100.00
2022-09-30T18:52:09.432Z,100.00
2022-09-30T18:55:15.774Z,100.00
2022-09-30T18:59:17.177Z,100.00
2022-09-30T19:02:46.411Z,100.00
2022-09-30T19:06:14.057Z,100.00
2022-09-30T19:09:22.837Z,100.00
2022-09-30T19:12:54.868Z,100.00
2022-09-30T19:16:43.673Z,100.00
2022-09-30T19:20:19.491Z,100.00
2022-09-30T19:24:07.774Z,100.00
2022-09-30T19:27:56.846Z,100.00
2022-09-30T19:31:26.364Z,100.00
2022-09-30T19:35:06.269Z,100.00
2022-09-30T19:38:38.063Z,100.00
2022-09-30T19:42:14.096Z,100.00
2022-09-30T19:45:53.516Z,100.00
2022-09-30T19:49:22.686Z,100.00
2022-09-30T19:52:57.880Z,100.00
2022-09-30T19:56:51.162Z,100.00
2022-09-30T20:00:31.894Z,100.00
2022-09-30T20:04:01.384Z,100.00
2022-09-30T20:07:43.800Z,100.00
2022-09-30T20:11:32.025Z,100.00
2022-09-30T20:15:19.071Z,100.00
2022-09-30T20:19:08.568Z,100.00
2022-09-30T20:22:56.871Z,100.00
2022-09-30T20:26:44.897Z,100.00
2022-09-30T20:30:27.508Z,100.00
2022-09-30T20:34:09.277Z,100.00
2022-09-30T20:37:57.907Z,100.00
2022-09-30T20:41:47.587Z,100.00
2022-09-30T20:45:02.904Z,100.00
2022-09-30T20:48:13.445Z,100.00
2022-09-30T20:52:05.480Z,100.00
2022-09-30T20:55:46.005Z,100.00
2022-09-30T20:59:34.312Z,100.00
2022-09-30T21:03:22.372Z,100.00
2022-09-30T21:07:10.235Z,100.00
2022-09-30T21:10:50.709Z,100.00
2022-09-30T21:14:42.343Z,100.00
2022-09-30T21:18:30.444Z,100.00
2022-09-30T21:22:17.975Z,100.00
2022-09-30T21:25:59.627Z,100.00
2022-09-30T21:29:47.483Z,100.00
2022-09-30T21:33:35.495Z,100.00
2022-09-30T21:37:23.893Z,100.00
2022-09-30T21:41:13.327Z,100.00
2022-09-30T21:44:54.085Z,100.00
2022-09-30T21:48:32.020Z,100.00
2022-09-30T21:52:19.820Z,100.00
2022-09-30T21:56:07.969Z,100.00
2022-09-30T21:59:50.262Z,100.00
2022-09-30T22:03:39.175Z,100.00
2022-09-30T22:07:12.790Z,100.00
2022-09-30T22:10:46.214Z,100.00
2022-09-30T22:14:34.171Z,100.00
2022-09-30T22:18:21.849Z,100.00
2022-09-30T22:22:05.922Z,100.00
2022-09-30T22:25:53.940Z,100.00
2022-09-30T22:29:35.671Z,100.00
2022-09-30T22:33:23.688Z,100.00
2022-09-30T22:37:10.213Z,100.00
2022-09-30T22:40:58.048Z,100.00
2022-09-30T22:44:28.938Z,100.00
2022-09-30T22:48:16.886Z,100.00
2022-09-30T22:51:57.414Z,100.00
2022-09-30T22:55:44.976Z,100.00
2022-09-30T22:59:32.531Z,100.00
2022-09-30T23:03:20.335Z,100.00
2022-09-30T23:07:08.467Z,100.00
2022-09-30T23:10:56.186Z,100.00
2022-09-30T23:14:34.253Z,100.00
2022-09-30T23:18:21.972Z,100.00
2022-09-30T23:22:12.407Z,100.00
2022-09-30T23:26:00.009Z,100.00
2022-09-30T23:29:40.242Z,100.00
2022-09-30T23:33:17.845Z,100.00
2022-09-30T23:37:05.983Z,100.00
2022-09-30T23:40:46.060Z,100.00
2022-09-30T23:44:33.943Z,100.00
2022-09-30T23:48:09.929Z,100.00
2022-09-30T23:51:50.789Z,100.00
2022-09-30T23:55:38.366Z,100.00
2022-09-30T23:59:19.921Z,100.00
